Time;durP1;ratioP1;P1;durP2;ratioP2;P2;SDS_P1;SDS_P2;PMS_P1;PMS_P2;Temp;Humidity;BMP_temperature;BMP_pressure;BME280_temperature;BME280_humidity;BME280_pressure;Samples;Min_cycle;Max_cycle;Signal;HPM_P1;HPM_P2
2023/08/17 00:00:13;;;;;;;6.43;2.17;;;;;;;19.24;72.87;101924.56;5021408;28;20030;-69
2023/08/17 00:02:39;;;;;;;6.78;2.10;;;;;;;19.18;73.12;101934.31;5025454;28;20026;-69
2023/08/17 00:05:06;;;;;;;5.57;2.25;;;;;;;19.14;73.03;101933.03;5032239;28;20029;-69
2023/08/17 00:07:31;;;;;;;4.88;2.00;;;;;;;19.09;73.17;101930.13;5028261;28;20025;-69
2023/08/17 00:09:56;;;;;;;5.60;2.22;;;;;;;19.11;73.22;101939.66;5015783;28;20030;-69
2023/08/17 00:12:22;;;;;;;9.60;2.10;;;;;;;19.06;73.33;101941.25;5027672;28;20112;-69
2023/08/17 00:14:47;;;;;;;5.38;2.20;;;;;;;19.04;73.55;101929.88;5019270;28;20471;-69
2023/08/17 00:17:12;;;;;;;4.75;2.22;;;;;;;19.01;73.51;101930.28;5028214;28;20036;-69
2023/08/17 00:19:37;;;;;;;3.55;2.30;;;;;;;18.98;73.87;101928.81;5025434;28;20026;-69
2023/08/17 00:22:03;;;;;;;5.50;2.20;;;;;;;18.98;73.96;101930.66;5027678;28;20027;-69
2023/08/17 00:24:28;;;;;;;6.35;2.55;;;;;;;18.98;73.87;101927.97;5017903;28;20025;-69
2023/08/17 00:26:54;;;;;;;6.50;2.30;;;;;;;18.97;73.92;101932.53;5029024;28;20028;-69
2023/08/17 00:29:19;;;;;;;4.63;2.10;;;;;;;18.98;74.12;101934.19;5014177;28;20018;-69
2023/08/17 00:31:44;;;;;;;6.20;2.60;;;;;;;18.97;74.26;101935.22;5024232;28;20033;-69
2023/08/17 00:34:09;;;;;;;4.20;2.10;;;;;;;18.95;74.15;101937.28;5022755;28;20033;-69
2023/08/17 00:36:35;;;;;;;4.78;2.10;;;;;;;18.96;74.14;101935.44;5027751;28;20636;-69
2023/08/17 00:39:01;;;;;;;3.70;2.13;;;;;;;18.93;74.31;101927.75;5026836;28;20028;-69
2023/08/17 00:41:26;;;;;;;4.75;2.40;;;;;;;18.91;74.34;101924.44;5024050;28;20040;-69
2023/08/17 00:43:51;;;;;;;6.50;2.38;;;;;;;18.90;74.18;101922.78;5025241;28;20018;-69
2023/08/17 00:46:17;;;;;;;6.68;2.35;;;;;;;18.91;74.39;101925.25;5030970;28;20470;-69
2023/08/17 00:48:42;;;;;;;4.63;1.83;;;;;;;18.93;74.24;101927.75;5013591;28;20029;-69
2023/08/17 00:51:08;;;;;;;6.43;2.05;;;;;;;18.91;74.19;101929.81;5021889;28;20021;-69
2023/08/17 00:53:33;;;;;;;6.47;2.10;;;;;;;18.90;74.52;101933.53;5019075;28;20037;-69
2023/08/17 00:56:00;;;;;;;8.70;2.42;;;;;;;18.87;74.65;101940.16;5026531;28;20549;-69
2023/08/17 00:58:26;;;;;;;4.68;2.30;;;;;;;18.86;74.58;101933.09;5017123;28;20041;-69
2023/08/17 01:00:51;;;;;;;4.05;2.22;;;;;;;18.86;74.68;101936.63;5026480;28;20033;-69
2023/08/17 01:03:18;;;;;;;5.03;2.10;;;;;;;18.86;74.78;101942.00;5025721;28;20021;-69
2023/08/17 01:05:43;;;;;;;5.57;2.60;;;;;;;18.85;74.62;101944.91;5013982;28;20518;-69
2023/08/17 01:08:09;;;;;;;11.57;2.20;;;;;;;18.85;75.01;101936.81;5028617;28;20017;-69
2023/08/17 01:10:46;;;;;;;6.55;2.40;;;;;;;18.83;74.88;101938.88;5027725;28;20111;-69
2023/08/17 01:13:20;;;;;;;5.55;2.30;;;;;;;18.82;74.77;101940.75;5020203;28;20075;-69
2023/08/17 01:15:52;;;;;;;5.45;2.22;;;;;;;18.78;74.77;101931.38;5010343;28;20476;-69
2023/08/17 01:18:30;;;;;;;6.18;2.05;;;;;;;18.79;74.61;101927.69;5028729;28;20067;-69
2023/08/17 01:20:56;;;;;;;5.80;2.53;;;;;;;18.80;74.97;101925.81;5026592;28;20045;-69
2023/08/17 01:23:22;;;;;;;5.50;2.10;;;;;;;18.79;74.86;101932.22;5018514;28;20036;-69
2023/08/17 01:25:48;;;;;;;4.85;2.20;;;;;;;18.78;75.10;101927.84;5023784;28;20025;-69
2023/08/17 01:28:13;;;;;;;3.90;2.17;;;;;;;18.76;75.40;101922.69;5015983;28;20034;-69
2023/08/17 01:31:05;;;;;;;9.80;2.60;;;;;;;18.79;75.25;101927.69;5017232;28;20025;-69
2023/08/17 01:33:40;;;;;;;6.47;2.33;;;;;;;18.77;75.44;101931.56;5025837;28;20071;-69
2023/08/17 01:36:13;;;;;;;6.75;2.80;;;;;;;18.74;75.24;101919.34;5024520;28;20044;-69
2023/08/17 01:38:40;;;;;;;7.55;2.50;;;;;;;18.74;75.55;101916.66;5017513;28;20022;-69
2023/08/17 01:41:12;;;;;;;5.32;2.20;;;;;;;18.73;75.69;101917.69;5015745;28;20035;-69
2023/08/17 01:43:41;;;;;;;5.50;2.42;;;;;;;18.70;75.63;101918.09;5022756;28;20033;-69
2023/08/17 01:46:07;;;;;;;6.85;2.50;;;;;;;18.70;75.65;101914.56;5012988;28;20021;-69
2023/08/17 01:48:32;;;;;;;4.82;2.33;;;;;;;18.68;75.67;101914.78;5016741;28;20017;-69
2023/08/17 01:50:57;;;;;;;7.38;3.03;;;;;;;18.69;75.50;101913.75;5026629;28;20371;-69
2023/08/17 01:53:23;;;;;;;5.15;2.58;;;;;;;18.66;75.39;101918.69;5025415;28;20038;-68
2023/08/17 01:55:48;;;;;;;5.10;2.35;;;;;;;18.61;75.40;101921.94;5015172;28;20399;-69
2023/08/17 01:58:13;;;;;;;7.88;2.60;;;;;;;18.55;75.64;101915.50;5026359;28;20025;-69
2023/08/17 02:00:38;;;;;;;5.90;2.20;;;;;;;18.53;75.66;101916.72;5017621;28;20030;-69
2023/08/17 02:03:04;;;;;;;5.32;2.35;;;;;;;18.52;75.42;101912.38;5027065;28;20029;-69
2023/08/17 02:05:29;;;;;;;5.80;2.10;;;;;;;18.49;75.83;101912.75;5020831;28;20029;-69
2023/08/17 02:07:54;;;;;;;6.50;2.20;;;;;;;18.42;75.51;101911.88;5019553;28;20073;-69
2023/08/17 02:10:20;;;;;;;5.22;2.30;;;;;;;18.38;75.03;101911.44;5017937;28;20479;-69
2023/08/17 02:12:45;;;;;;;3.72;2.00;;;;;;;18.32;75.43;101920.28;5027326;28;20029;-69
2023/08/17 02:15:10;;;;;;;6.00;2.38;;;;;;;18.30;75.25;101918.81;5024024;28;20499;-69
2023/08/17 02:17:35;;;;;;;6.28;2.28;;;;;;;18.26;75.38;101921.91;5021285;28;20029;-69
2023/08/17 02:20:01;;;;;;;5.65;2.38;;;;;;;18.26;75.22;101919.22;5027485;28;20028;-69
2023/08/17 02:22:26;;;;;;;6.50;2.22;;;;;;;18.22;75.24;101917.94;5025422;28;20032;-69
2023/08/17 02:24:51;;;;;;;7.22;2.47;;;;;;;18.19;75.12;101912.94;5021166;28;20028;-69
2023/08/17 02:27:16;;;;;;;4.95;2.10;;;;;;;18.15;75.23;101917.03;5023720;28;20470;-69
2023/08/17 02:29:42;;;;;;;4.93;1.98;;;;;;;18.07;75.26;101921.72;5022459;28;20018;-69
2023/08/17 02:32:07;;;;;;;5.78;2.25;;;;;;;18.08;75.27;101910.78;5027381;28;20517;-69
2023/08/17 02:34:32;;;;;;;4.28;2.00;;;;;;;18.08;75.15;101920.69;5016073;28;20037;-69
2023/08/17 02:36:57;;;;;;;6.82;2.40;;;;;;;18.04;75.36;101917.56;5024236;28;20049;-69
2023/08/17 02:39:23;;;;;;;6.78;2.20;;;;;;;18.04;75.17;101904.13;5013217;28;20520;-69
2023/08/17 02:41:49;;;;;;;4.68;2.03;;;;;;;18.03;75.40;101902.47;5021708;28;20025;-69
2023/08/17 02:44:15;;;;;;;4.80;2.10;;;;;;;17.98;75.42;101893.34;5022921;28;20025;-69
2023/08/17 02:46:40;;;;;;;5.00;1.98;;;;;;;18.00;75.42;101905.56;5018326;28;20033;-69
2023/08/17 02:49:05;;;;;;;6.05;2.35;;;;;;;17.98;75.65;101910.28;5021363;28;20021;-69
2023/08/17 02:51:30;;;;;;;6.75;2.33;;;;;;;17.95;75.75;101910.69;5016290;28;20076;-69
2023/08/17 02:53:56;;;;;;;4.72;2.13;;;;;;;17.93;75.80;101901.97;5018297;28;20041;-69
2023/08/17 02:56:21;;;;;;;4.97;2.60;;;;;;;17.90;75.89;101907.72;5024718;28;20380;-69
2023/08/17 02:58:46;;;;;;;6.85;2.83;;;;;;;17.88;76.02;101907.06;5023808;28;20026;-69
2023/08/17 03:01:11;;;;;;;6.18;2.30;;;;;;;17.88;75.95;101910.59;5023761;28;20112;-69
2023/08/17 03:03:37;;;;;;;6.72;2.20;;;;;;;17.83;76.15;101898.75;5026185;28;20030;-69
2023/08/17 03:06:02;;;;;;;5.80;2.30;;;;;;;17.82;76.38;101902.47;5018098;28;20443;-69
2023/08/17 03:08:28;;;;;;;6.40;2.80;;;;;;;17.78;76.43;101903.88;5028107;28;20487;-69
2023/08/17 03:10:53;;;;;;;5.80;2.22;;;;;;;17.75;76.60;101912.34;5017287;28;20034;-69
2023/08/17 03:13:18;;;;;;;4.18;2.13;;;;;;;17.72;76.76;101910.03;5027894;28;20017;-69
2023/08/17 03:15:43;;;;;;;7.03;2.40;;;;;;;17.70;76.69;101906.72;5014865;28;20030;-69
2023/08/17 03:18:09;;;;;;;9.57;2.72;;;;;;;17.66;77.00;101903.53;5024594;28;20076;-69
2023/08/17 03:20:34;;;;;;;5.00;2.58;;;;;;;17.64;77.11;101903.75;5019724;28;20037;-69
2023/08/17 03:22:59;;;;;;;5.60;2.40;;;;;;;17.58;77.38;101900.97;5025985;28;20029;-69
2023/08/17 03:25:25;;;;;;;5.50;2.35;;;;;;;17.56;77.36;101898.47;5026662;28;20048;-69
2023/08/17 03:27:50;;;;;;;7.20;2.50;;;;;;;17.55;77.48;101898.66;5022812;28;20030;-69
2023/08/17 03:30:15;;;;;;;6.97;2.50;;;;;;;17.53;77.44;101901.53;5024154;28;20024;-68
2023/08/17 03:32:40;;;;;;;4.80;2.60;;;;;;;17.54;77.80;101900.50;5015694;28;20053;-68
2023/08/17 03:35:06;;;;;;;8.27;2.50;;;;;;;17.52;78.06;101894.50;5016795;28;20091;-69
2023/08/17 03:37:32;;;;;;;6.25;2.53;;;;;;;17.53;77.83;101900.72;5023552;28;20109;-69
2023/08/17 03:39:57;;;;;;;3.67;2.30;;;;;;;17.50;78.05;101891.19;5022970;28;20022;-69
2023/08/17 03:42:22;;;;;;;6.07;2.55;;;;;;;17.51;78.15;101892.00;5019753;28;20101;-69
2023/08/17 03:44:47;;;;;;;6.35;2.67;;;;;;;17.50;77.96;101896.53;5021896;28;20087;-69
2023/08/17 03:47:14;;;;;;;7.57;2.35;;;;;;;17.48;78.18;101889.69;5015513;28;20018;-69
2023/08/17 03:49:39;;;;;;;6.13;2.33;;;;;;;17.44;78.20;101886.56;5020396;28;20053;-69
2023/08/17 03:52:05;;;;;;;5.88;2.47;;;;;;;17.44;78.06;101886.56;5021646;28;20068;-69
2023/08/17 03:54:30;;;;;;;4.93;2.38;;;;;;;17.42;78.22;101885.09;5026625;28;20636;-69
2023/08/17 03:56:55;;;;;;;8.32;2.53;;;;;;;17.39;78.50;101885.47;5019248;28;20018;-68
2023/08/17 03:59:21;;;;;;;6.80;2.83;;;;;;;17.38;78.42;101892.72;5031495;28;20030;-69
2023/08/17 04:01:46;;;;;;;6.85;2.65;;;;;;;17.36;78.58;101893.91;5017860;28;20034;-69
2023/08/17 04:04:11;;;;;;;6.20;2.63;;;;;;;17.37;78.48;101896.41;5023122;28;20030;-69
2023/08/17 04:06:39;;;;;;;6.97;2.85;;;;;;;17.34;78.82;101902.13;5017008;28;20550;-68
2023/08/17 04:09:04;;;;;;;4.93;2.67;;;;;;;17.29;78.90;101907.25;5029577;28;20486;-68
2023/08/17 04:11:29;;;;;;;6.63;2.80;;;;;;;17.29;79.05;101909.94;5018216;28;20036;-68
2023/08/17 04:13:55;;;;;;;4.65;2.72;;;;;;;17.25;79.25;101906.78;5024066;28;20018;-69
2023/08/17 04:16:20;;;;;;;5.18;2.70;;;;;;;17.20;79.50;101911.06;5018710;28;20033;-69
2023/08/17 04:18:45;;;;;;;5.60;2.80;;;;;;;17.23;79.67;101910.69;5029227;28;20506;-69
2023/08/17 04:21:10;;;;;;;5.38;2.92;;;;;;;17.21;80.07;101915.41;5025377;28;20036;-68
2023/08/17 04:23:36;;;;;;;7.55;2.70;;;;;;;17.23;79.83;101906.16;5022114;28;20142;-69
2023/08/17 04:26:01;;;;;;;5.65;2.80;;;;;;;17.24;80.16;101915.03;5028092;28;20025;-68
2023/08/17 04:28:26;;;;;;;6.13;2.63;;;;;;;17.22;80.03;101915.22;5027943;28;20044;-69
2023/08/17 04:30:51;;;;;;;8.02;2.97;;;;;;;17.21;80.36;101918.09;5025837;28;20037;-69
2023/08/17 04:33:17;;;;;;;8.43;2.90;;;;;;;17.18;80.49;101924.69;5030424;28;20027;-69
2023/08/17 04:35:45;;;;;;;8.98;3.00;;;;;;;17.17;80.18;101928.38;5021004;28;20035;-68
2023/08/17 04:38:11;;;;;;;6.70;2.63;;;;;;;17.22;80.41;101928.66;5029364;28;20029;-68
2023/08/17 04:40:36;;;;;;;5.82;2.75;;;;;;;17.19;80.67;101930.88;5028466;28;20036;-69
2023/08/17 04:43:01;;;;;;;4.95;2.63;;;;;;;17.19;80.83;101928.19;5028878;28;20479;-69
2023/08/17 04:45:26;;;;;;;5.07;2.75;;;;;;;17.19;80.81;101930.88;5026111;28;20025;-68
2023/08/17 04:47:52;;;;;;;8.65;3.08;;;;;;;17.21;80.73;101926.16;5019780;28;20201;-68
2023/08/17 04:50:17;;;;;;;8.43;2.90;;;;;;;17.21;80.79;101920.78;5017590;28;20021;-69
2023/08/17 04:52:45;;;;;;;5.20;2.67;;;;;;;17.20;80.64;101916.44;5025480;28;20036;-68
2023/08/17 04:55:14;;;;;;;5.28;2.75;;;;;;;17.21;80.78;101924.31;5026089;28;20021;-69
2023/08/17 04:57:39;;;;;;;7.03;3.00;;;;;;;17.22;80.71;101917.09;5021564;28;20108;-69
2023/08/17 05:00:09;;;;;;;8.05;3.17;;;;;;;17.22;81.07;101923.28;5024482;28;20781;-68
2023/08/17 05:02:35;;;;;;;6.68;2.83;;;;;;;17.28;80.72;101921.69;5020123;28;20037;-69
2023/08/17 05:05:03;;;;;;;5.53;2.63;;;;;;;17.25;80.88;101916.69;5021162;28;20598;-69
2023/08/17 05:07:28;;;;;;;5.18;2.38;;;;;;;17.27;80.79;101912.81;5021773;28;20116;-68
2023/08/17 05:09:53;;;;;;;5.97;2.90;;;;;;;17.30;80.65;101917.78;5013613;28;20117;-68
2023/08/17 05:12:18;;;;;;;11.05;3.00;;;;;;;17.31;80.88;101918.63;5014450;28;20025;-69
2023/08/17 05:14:44;;;;;;;9.18;3.03;;;;;;;17.29;80.98;101913.44;5024507;28;20068;-68
2023/08/17 05:17:09;;;;;;;5.40;2.78;;;;;;;17.29;80.78;101904.56;5018969;28;20099;-69
2023/08/17 05:19:34;;;;;;;3.63;2.47;;;;;;;17.30;80.97;101906.22;5021653;28;20034;-68
2023/08/17 05:21:59;;;;;;;10.45;3.08;;;;;;;17.32;81.05;101909.56;5020417;28;20022;-68
2023/08/17 05:24:25;;;;;;;9.07;3.38;;;;;;;17.31;80.95;101907.88;5026255;28;20091;-69
2023/08/17 05:26:50;;;;;;;5.93;2.80;;;;;;;17.35;81.08;101911.88;5029911;28;20032;-69
2023/08/17 05:29:15;;;;;;;6.03;2.80;;;;;;;17.35;81.21;101901.16;5017838;28;20483;-68
2023/08/17 05:31:40;;;;;;;7.90;3.00;;;;;;;17.31;81.02;101906.03;5019988;28;20021;-68
2023/08/17 05:34:06;;;;;;;7.47;3.13;;;;;;;17.34;81.02;101912.88;5022385;28;20061;-68
2023/08/17 05:36:31;;;;;;;7.57;2.80;;;;;;;17.33;81.09;101911.22;5018717;28;20108;-68
2023/08/17 05:38:56;;;;;;;8.57;2.95;;;;;;;17.33;81.30;101911.22;5023758;28;20479;-68
2023/08/17 05:41:21;;;;;;;6.15;2.65;;;;;;;17.36;81.48;101904.66;5021560;28;20021;-69
2023/08/17 05:43:48;;;;;;;5.80;2.60;;;;;;;17.35;81.20;101909.19;5017386;28;20063;-69
2023/08/17 05:46:13;;;;;;;7.97;2.78;;;;;;;17.37;81.39;101911.69;5010048;28;20057;-69
2023/08/17 05:48:39;;;;;;;3.90;2.45;;;;;;;17.41;81.44;101905.75;5012289;28;20045;-68
2023/08/17 05:51:04;;;;;;;4.78;2.63;;;;;;;17.41;81.66;101903.06;5011197;28;20030;-68
2023/08/17 05:53:30;;;;;;;7.03;2.85;;;;;;;17.45;81.50;101911.56;5012522;28;20025;-69
2023/08/17 05:55:55;;;;;;;7.43;2.42;;;;;;;17.50;81.42;101918.03;5011858;28;20041;-69
2023/08/17 05:58:20;;;;;;;7.20;2.92;;;;;;;17.51;81.33;101919.69;5017437;28;21785;-69
2023/08/17 06:00:45;;;;;;;6.47;2.75;;;;;;;17.54;81.22;101915.78;5015995;28;20022;-69
2023/08/17 06:03:11;;;;;;;7.57;3.00;;;;;;;17.60;81.21;101928.47;5013112;28;20021;-68
2023/08/17 06:05:36;;;;;;;8.05;2.90;;;;;;;17.63;81.43;101928.91;5009534;28;20033;-68
2023/08/17 06:08:01;;;;;;;6.90;2.85;;;;;;;17.63;81.01;101930.75;5008819;28;20029;-68
2023/08/17 06:10:27;;;;;;;9.15;2.70;;;;;;;17.69;80.86;101938.13;5009195;28;20014;-68
2023/08/17 06:12:53;;;;;;;10.35;2.70;;;;;;;17.71;80.97;101940.63;5018197;28;20025;-68
2023/08/17 06:15:19;;;;;;;6.65;2.83;;;;;;;17.77;81.30;101939.84;5009976;28;20071;-68
2023/08/17 06:17:44;;;;;;;10.35;3.10;;;;;;;17.80;81.10;101945.66;5011240;28;20483;-69
2023/08/17 06:20:10;;;;;;;10.40;3.30;;;;;;;17.82;80.81;101940.94;5008509;28;20046;-68
2023/08/17 06:22:35;;;;;;;6.65;2.60;;;;;;;17.84;80.84;101940.72;5013224;28;20028;-68
2023/08/17 06:25:01;;;;;;;6.97;2.95;;;;;;;17.88;80.53;101940.16;5021495;28;20021;-68
2023/08/17 06:27:26;;;;;;;6.82;2.70;;;;;;;17.90;80.73;101940.78;5020780;28;20029;-68
2023/08/17 06:29:51;;;;;;;7.10;2.95;;;;;;;17.94;80.75;101941.28;5026524;28;20116;-68
2023/08/17 06:32:17;;;;;;;9.55;2.92;;;;;;;17.97;80.37;101940.88;5021921;28;20040;-68
2023/08/17 06:34:42;;;;;;;6.90;3.15;;;;;;;18.03;80.53;101939.28;5019490;28;20075;-69
2023/08/17 06:37:07;;;;;;;6.78;2.97;;;;;;;18.07;80.47;101938.69;5022872;28;20024;-69
2023/08/17 06:39:33;;;;;;;6.63;2.97;;;;;;;18.13;80.34;101942.47;5024657;28;20033;-68
2023/08/17 06:41:58;;;;;;;8.38;3.10;;;;;;;18.16;80.63;101936.69;5024987;28;20062;-68
2023/08/17 06:44:23;;;;;;;8.32;3.10;;;;;;;18.16;79.91;101934.84;5023415;28;20576;-68
2023/08/17 06:46:48;;;;;;;6.40;3.00;;;;;;;18.19;79.75;101936.31;5014583;28;20036;-68
2023/08/17 06:49:14;;;;;;;8.38;2.78;;;;;;;18.19;79.36;101937.13;5019329;28;20041;-69
2023/08/17 06:51:39;;;;;;;8.75;3.05;;;;;;;18.34;79.38;101947.81;5016542;28;20659;-68
2023/08/17 06:54:07;;;;;;;7.22;3.60;;;;;;;18.39;79.13;101942.69;5027623;28;20040;-68
2023/08/17 06:56:33;;;;;;;7.38;3.00;;;;;;;18.50;79.06;101941.31;5016183;28;20510;-69
2023/08/17 06:58:58;;;;;;;7.05;3.05;;;;;;;18.57;79.27;101951.09;5022087;28;20026;-69
2023/08/17 07:01:23;;;;;;;6.78;3.25;;;;;;;18.64;78.96;101948.50;5002073;28;20586;-68
2023/08/17 07:03:48;;;;;;;5.50;2.70;;;;;;;18.68;78.15;101943.53;5016781;28;20025;-68
2023/08/17 07:06:14;;;;;;;9.75;2.65;;;;;;;18.74;78.05;101948.13;5014482;28;20025;-68
2023/08/17 07:08:39;;;;;;;6.85;2.90;;;;;;;18.73;78.15;101935.69;5023324;28;20021;-68
2023/08/17 07:11:05;;;;;;;7.70;2.83;;;;;;;18.74;77.47;101942.75;5021940;28;20037;-68
2023/08/17 07:13:31;;;;;;;5.47;2.63;;;;;;;18.74;77.32;101945.44;5017359;28;20597;-68
2023/08/17 07:15:56;;;;;;;7.68;2.85;;;;;;;18.73;77.31;101944.59;5019283;28;20225;-69
2023/08/17 07:18:21;;;;;;;6.00;2.78;;;;;;;18.72;77.39;101951.00;5024046;28;20021;-69
2023/08/17 07:20:47;;;;;;;7.95;2.95;;;;;;;18.76;77.41;101951.44;5023129;28;20364;-68
2023/08/17 07:23:12;;;;;;;7.47;2.90;;;;;;;18.76;77.57;101957.66;5027306;28;20024;-68
2023/08/17 07:25:37;;;;;;;9.70;2.75;;;;;;;18.77;77.56;101953.09;5029976;28;20053;-68
2023/08/17 07:28:03;;;;;;;9.27;2.97;;;;;;;18.81;77.45;101951.72;5012438;28;20018;-68
2023/08/17 07:30:28;;;;;;;9.13;3.13;;;;;;;18.81;77.03;101951.72;5020274;28;20030;-68
2023/08/17 07:32:53;;;;;;;5.93;2.33;;;;;;;18.82;77.07;101950.69;5015682;28;20076;-69
2023/08/17 07:35:19;;;;;;;7.65;2.70;;;;;;;18.83;77.00;101953.19;5024417;28;20040;-68
2023/08/17 07:37:44;;;;;;;8.32;2.90;;;;;;;18.87;76.79;101950.91;5027121;28;20036;-69
2023/08/17 07:40:10;;;;;;;7.30;3.03;;;;;;;18.88;76.87;101949.88;5027552;28;21448;-68
2023/08/17 07:42:36;;;;;;;6.60;2.80;;;;;;;18.90;76.74;101947.00;5025926;28;20036;-69
2023/08/17 07:45:04;;;;;;;7.53;2.80;;;;;;;18.91;76.70;101941.41;5028082;28;20017;-68
2023/08/17 07:47:29;;;;;;;6.30;3.03;;;;;;;18.95;76.61;101939.16;5021543;28;20467;-68
2023/08/17 07:49:55;;;;;;;9.68;2.83;;;;;;;19.03;76.79;101936.28;5018743;28;20522;-69
2023/08/17 07:52:20;;;;;;;9.02;3.05;;;;;;;19.09;77.04;101947.13;5019375;28;20029;-68
2023/08/17 07:54:45;;;;;;;9.13;3.10;;;;;;;19.16;76.94;101944.44;5026322;28;20033;-68
2023/08/17 07:57:11;;;;;;;8.75;3.15;;;;;;;19.18;76.86;101953.97;5022782;28;20040;-69
2023/08/17 07:59:36;;;;;;;6.47;2.90;;;;;;;19.22;76.64;101943.63;5022007;28;20014;-68
2023/08/17 08:02:01;;;;;;;7.15;2.75;;;;;;;19.36;76.91;101958.81;5026139;28;20414;-69
2023/08/17 08:04:27;;;;;;;8.68;3.13;;;;;;;19.37;76.41;101955.09;5020944;28;20057;-69
2023/08/17 08:06:52;;;;;;;7.93;2.92;;;;;;;19.43;76.37;101953.47;5023838;28;20507;-68
2023/08/17 08:09:17;;;;;;;6.90;2.85;;;;;;;19.45;75.59;101963.00;5022558;28;20076;-68
2023/08/17 08:11:43;;;;;;;9.18;3.03;;;;;;;19.49;75.70;101958.03;5024733;28;20026;-68
2023/08/17 08:14:08;;;;;;;9.13;3.28;;;;;;;19.48;75.65;101961.75;5029417;28;20022;-68
2023/08/17 08:16:33;;;;;;;9.20;3.17;;;;;;;19.57;75.76;101952.50;5022384;28;20056;-68
2023/08/17 08:18:58;;;;;;;5.65;2.90;;;;;;;19.54;75.54;101938.59;5029449;28;20025;-68
2023/08/17 08:21:24;;;;;;;8.63;3.00;;;;;;;19.55;75.14;101945.66;5028360;28;20029;-68
2023/08/17 08:23:49;;;;;;;7.45;3.28;;;;;;;19.49;74.89;101949.97;5029343;28;20053;-68
2023/08/17 08:26:14;;;;;;;6.38;3.03;;;;;;;19.49;74.93;101949.97;5028456;28;20399;-69
2023/08/17 08:28:39;;;;;;;8.07;3.40;;;;;;;19.42;75.01;101955.31;5017177;28;20056;-68
2023/08/17 08:31:05;;;;;;;8.57;3.55;;;;;;;19.37;75.12;101954.25;5012330;28;20033;-68
2023/08/17 08:33:30;;;;;;;6.80;3.08;;;;;;;19.35;75.33;101957.13;5020779;28;20037;-68
2023/08/17 08:35:56;;;;;;;6.80;2.85;;;;;;;19.38;75.71;101951.38;5019128;28;20041;-69
2023/08/17 08:38:21;;;;;;;7.25;3.30;;;;;;;19.38;75.84;101962.16;5023428;28;20025;-68
2023/08/17 08:40:47;;;;;;;6.90;3.50;;;;;;;19.34;75.88;101958.19;5017900;28;20026;-68
2023/08/17 08:43:13;;;;;;;9.95;3.80;;;;;;;19.28;75.40;101956.28;5019312;28;20029;-68
2023/08/17 08:45:41;;;;;;;9.30;3.60;;;;;;;19.23;75.31;101956.06;5025089;28;20622;-68
2023/08/17 08:48:08;;;;;;;10.25;3.40;;;;;;;19.17;75.36;101956.88;5022094;28;20073;-68
2023/08/17 08:50:35;;;;;;;7.70;3.80;;;;;;;19.16;75.68;101960.59;5024006;28;20030;-69
2023/08/17 08:53:05;;;;;;;9.73;3.67;;;;;;;19.12;75.76;101952.09;5026731;28;20030;-68
2023/08/17 08:55:36;;;;;;;8.07;3.80;;;;;;;19.12;76.16;101951.25;5026525;28;20037;-68
2023/08/17 08:58:03;;;;;;;7.45;3.50;;;;;;;19.14;76.18;101955.41;5021185;28;20509;-68
2023/08/17 09:00:29;;;;;;;7.97;3.75;;;;;;;19.13;76.60;101947.53;5020251;28;20037;-69
2023/08/17 09:02:56;;;;;;;13.57;4.20;;;;;;;19.11;76.21;101949.59;5021599;28;20473;-68
2023/08/17 09:05:22;;;;;;;14.10;4.43;;;;;;;19.11;76.48;101947.75;5019764;28;20036;-69
2023/08/17 09:07:50;;;;;;;11.35;4.53;;;;;;;19.11;76.61;101946.91;5025413;28;20495;-68
2023/08/17 09:10:16;;;;;;;11.82;4.20;;;;;;;19.19;76.74;101946.72;5028258;28;20892;-68
2023/08/17 09:12:43;;;;;;;12.73;4.05;;;;;;;19.18;76.91;101948.59;5021588;28;20025;-69
2023/08/17 09:15:09;;;;;;;7.68;4.18;;;;;;;19.19;76.81;101939.47;5023152;28;20479;-68
2023/08/17 09:17:34;;;;;;;11.25;4.38;;;;;;;19.22;76.72;101934.72;5018978;28;20535;-68
2023/08/17 09:20:00;;;;;;;10.07;4.07;;;;;;;19.24;76.78;101938.03;5026040;28;20116;-68
2023/08/17 09:22:41;;;;;;;10.63;4.28;;;;;;;19.23;76.73;101937.22;5018504;28;20048;-69
2023/08/17 09:25:08;;;;;;;7.93;4.03;;;;;;;19.19;76.50;101944.03;5030300;28;20028;-68
2023/08/17 09:27:35;;;;;;;9.27;4.28;;;;;;;19.15;76.45;101932.84;5021634;28;20462;-68
2023/08/17 09:30:05;;;;;;;9.47;4.23;;;;;;;19.20;76.53;101940.31;5023347;28;20108;-68
2023/08/17 09:32:31;;;;;;;11.52;4.68;;;;;;;19.15;76.52;101932.00;5020465;28;20279;-68
2023/08/17 09:34:56;;;;;;;8.85;4.30;;;;;;;19.11;76.67;101938.84;5022222;28;20029;-68
2023/08/17 09:37:21;;;;;;;9.38;4.90;;;;;;;19.07;76.74;101935.69;5013423;28;20022;-68
2023/08/17 09:39:47;;;;;;;7.40;4.53;;;;;;;19.04;76.71;101938.78;5018093;28;20037;-68
2023/08/17 09:42:15;;;;;;;7.05;4.40;;;;;;;19.05;77.00;101940.44;5011852;28;20033;-68
2023/08/17 09:44:42;;;;;;;9.82;4.75;;;;;;;19.04;77.21;101936.09;5010175;28;20105;-68
2023/08/17 09:47:07;;;;;;;9.93;4.80;;;;;;;19.12;77.62;101932.41;5011899;28;20594;-68
2023/08/17 09:49:33;;;;;;;10.88;4.90;;;;;;;19.11;77.69;101930.75;5011026;28;20038;-68
2023/08/17 09:52:02;;;;;;;9.60;5.25;;;;;;;19.14;77.71;101923.09;5008411;28;20102;-68
2023/08/17 09:54:30;;;;;;;14.18;5.18;;;;;;;19.19;77.60;101920.63;5009349;28;20104;-68
2023/08/17 09:56:57;;;;;;;12.55;5.32;;;;;;;19.28;77.32;101917.75;5012135;28;20736;-68
2023/08/17 09:59:23;;;;;;;14.18;5.30;;;;;;;19.34;77.40;101912.38;5011036;28;20105;-68
2023/08/17 10:01:50;;;;;;;10.65;5.03;;;;;;;19.40;77.37;101921.53;5019155;28;20033;-69
2023/08/17 10:04:21;;;;;;;10.48;5.22;;;;;;;19.49;77.33;101920.31;5023741;28;20429;-68
2023/08/17 10:06:51;;;;;;;13.10;5.68;;;;;;;19.58;77.17;101918.28;5025863;28;20489;-68
2023/08/17 10:09:23;;;;;;;10.27;5.78;;;;;;;19.59;76.93;101918.09;5019276;28;20049;-68
2023/08/17 10:11:51;;;;;;;10.90;5.30;;;;;;;19.65;76.78;101911.03;5013630;28;20022;-68
2023/08/17 10:14:23;;;;;;;9.65;4.85;;;;;;;19.62;76.61;101914.97;5018188;28;20022;-68
2023/08/17 10:16:57;;;;;;;10.52;5.20;;;;;;;19.61;76.24;101912.50;5023658;28;20032;-68
2023/08/17 10:19:36;;;;;;;9.32;4.65;;;;;;;19.58;76.16;101900.25;5025685;28;20025;-68
2023/08/17 10:22:18;;;;;;;9.73;4.82;;;;;;;19.67;76.47;101903.63;5024692;28;20033;-68
2023/08/17 10:24:44;;;;;;;11.95;5.22;;;;;;;19.67;77.03;101900.91;5027170;28;20105;-68
2023/08/17 10:27:11;;;;;;;14.18;5.78;;;;;;;19.67;76.62;101896.34;5028506;28;20021;-68
2023/08/17 10:29:38;;;;;;;10.85;5.10;;;;;;;19.67;76.67;101901.75;5027487;28;20144;-68
2023/08/17 10:32:06;;;;;;;9.55;5.20;;;;;;;19.68;76.65;101903.41;5028071;28;20033;-68
2023/08/17 10:34:33;;;;;;;11.68;5.20;;;;;;;19.66;76.58;101894.69;5016912;28;20109;-68
2023/08/17 10:37:00;;;;;;;11.05;5.03;;;;;;;19.68;76.61;101892.63;5021820;28;20375;-68
2023/08/17 10:39:26;;;;;;;11.27;5.30;;;;;;;19.72;76.62;101898.44;5011179;28;20570;-68
2023/08/17 10:41:53;;;;;;;11.02;5.03;;;;;;;19.74;76.75;101899.06;5014326;28;20038;-68
2023/08/17 10:44:43;;;;;;;11.43;5.68;;;;;;;19.67;76.52;101892.84;5012012;28;20394;-68
2023/08/17 10:47:22;;;;;;;14.68;6.30;;;;;;;19.64;76.67;101899.44;5020492;28;20080;-68
2023/08/17 10:50:09;;;;;;;11.80;6.20;;;;;;;19.56;76.68;101899.63;5018789;28;20026;-68
2023/08/17 10:52:37;;;;;;;12.30;6.22;;;;;;;19.51;77.42;101902.09;5019675;28;20037;-68
2023/08/17 10:55:09;;;;;;;13.05;6.35;;;;;;;19.56;77.62;101901.50;5023329;28;20408;-68
2023/08/17 10:57:37;;;;;;;17.42;7.18;;;;;;;19.55;77.96;101902.53;5023775;28;20053;-68
2023/08/17 11:00:10;;;;;;;11.00;6.18;;;;;;;19.57;78.00;101900.47;5014642;28;20267;-68
2023/08/17 11:02:37;;;;;;;14.40;6.78;;;;;;;19.54;77.93;101895.47;5026165;28;20037;-68
2023/08/17 11:05:04;;;;;;;12.60;6.65;;;;;;;19.58;77.76;101896.72;5021126;28;20439;-68
2023/08/17 11:07:39;;;;;;;14.07;6.93;;;;;;;19.57;77.82;101903.16;5021393;28;20029;-68
2023/08/17 11:10:31;;;;;;;12.82;6.65;;;;;;;19.59;77.81;101907.31;5027270;28;20013;-68
2023/08/17 11:13:01;;;;;;;14.25;7.28;;;;;;;19.52;77.94;101909.13;5020963;28;20407;-68
2023/08/17 11:15:37;;;;;;;13.25;8.02;;;;;;;19.54;77.95;101908.97;5018629;28;20540;-68
2023/08/17 11:18:03;;;;;;;15.15;7.78;;;;;;;19.54;78.50;101907.09;5028228;28;20036;-68
2023/08/17 11:20:28;;;;;;;14.75;7.43;;;;;;;19.53;78.79;101909.97;5027019;28;20569;-69